Terminal Aerodrome Forecast
Issued by NWS Wilmington, OH

Home | Current Version | Previous Version | Text Only | Print | Product List | Glossary On
Versions: 1 2 3 4 5 6 7 8 9 10 11 12 13 14 15 16 17 18 19
000
FTUS41 KILN 240500
TAFCMH
TAF
KCMH 240540Z 2406/2506 17015G25KT P6SM VCSH SCT012 OVC030
      TEMPO 2406/2409 5SM -SHRA BKN014 OVC030
     FM240900 22022G33KT P6SM VCSH SCT012 OVC025
      TEMPO 2417/2419 5SM -SHRA BR SCT018 OVC025
     FM241900 24026G40KT P6SM SCT012 OVC022
     FM242000 24024G36KT P6SM BKN025=

USA.gov is the U.S. government's official web portal to all federal, state and local government web resources and services.